createdAt,value
2023-04-20T00:12:38.468Z,100437.57
2023-04-20T00:27:28.751Z,100415.77
2023-04-20T00:42:19.026Z,100389.31
2023-04-20T00:57:10.137Z,100383.20
2023-04-20T01:12:01.532Z,100357.08
2023-04-20T01:26:51.889Z,100340.97
2023-04-20T01:41:42.325Z,100318.37
2023-04-20T01:56:34.389Z,100302.29
2023-04-20T02:26:33.425Z,100289.44
2023-04-20T02:41:23.765Z,100271.59
2023-04-20T02:56:14.399Z,100254.26
2023-04-20T03:11:04.589Z,100244.77
2023-04-20T03:25:55.255Z,100236.80
2023-04-20T03:40:46.601Z,100239.19
2023-04-20T03:55:37.052Z,100229.34
2023-04-20T04:10:28.795Z,100232.48
2023-04-20T04:25:20.068Z,100221.94
2023-04-20T04:40:11.815Z,100212.14
2023-04-20T04:55:05.079Z,100211.94
2023-04-20T05:25:00.817Z,100209.14
2023-04-20T05:54:58.097Z,100205.38
2023-04-20T06:54:41.712Z,100203.22
2023-04-20T07:09:33.422Z,100194.02
2023-04-20T07:24:25.172Z,100186.14
2023-04-20T07:39:17.305Z,100176.30
2023-04-20T07:54:08.114Z,100168.07
2023-04-20T08:09:00.290Z,100163.02
2023-04-20T08:23:53.207Z,100144.40
2023-04-20T08:38:45.357Z,100121.93
2023-04-20T08:53:37.427Z,100124.38
2023-04-20T09:08:34.474Z,100112.73
2023-04-20T09:23:30.291Z,100109.28
2023-04-20T09:38:21.250Z,100082.70
2023-04-20T09:53:13.306Z,100076.57
2023-04-20T10:08:05.501Z,100070.45
2023-04-20T10:22:56.753Z,100052.70
2023-04-20T10:37:48.502Z,100048.30
2023-04-20T10:52:39.796Z,100037.00
2023-04-20T11:07:29.837Z,100034.86
2023-04-20T11:22:21.011Z,100025.27
2023-04-20T11:37:15.130Z,100015.41
2023-04-20T11:52:10.516Z,100003.89
2023-04-20T12:07:02.438Z,100007.49
2023-04-20T12:21:53.792Z,100003.58
2023-04-20T12:36:46.510Z,99997.06
2023-04-20T12:51:39.580Z,100002.04
2023-04-20T13:06:29.754Z,99999.88
2023-04-20T13:21:19.399Z,100022.00
2023-04-20T13:36:09.869Z,100013.52
2023-04-20T13:51:00.769Z,100006.25
2023-04-20T14:20:41.708Z,100009.75
2023-04-20T14:50:25.691Z,100002.17
2023-04-20T15:05:18.742Z,100017.33
2023-04-20T15:20:10.996Z,100017.35
2023-04-20T15:35:06.526Z,100015.94
2023-04-20T15:49:59.122Z,100006.59
2023-04-20T16:34:58.256Z,100016.11
2023-04-20T18:04:19.440Z,100021.21
2023-04-20T18:19:11.407Z,100028.21
2023-04-20T18:34:02.784Z,100041.22
2023-04-20T18:48:54.936Z,100033.67
2023-04-20T19:03:48.042Z,100054.19
2023-04-20T19:18:36.933Z,100060.75
2023-04-20T19:33:28.619Z,100052.80
2023-04-20T19:48:19.988Z,100047.20
2023-04-20T20:03:11.401Z,100046.48
2023-04-20T20:18:03.024Z,100052.17
2023-04-20T20:32:53.852Z,100057.51
2023-04-20T20:47:44.354Z,100067.70
2023-04-20T21:02:34.965Z,100050.18
2023-04-20T21:17:26.311Z,100054.19
2023-04-20T21:32:18.968Z,100042.81
2023-04-20T21:47:10.326Z,100040.43
2023-04-20T22:02:00.923Z,100034.77
2023-04-20T22:16:51.642Z,100033.22
2023-04-20T22:46:51.400Z,100033.80
2023-04-20T23:01:40.093Z,100051.17
2023-04-20T23:16:30.926Z,100053.09
2023-04-20T23:31:21.037Z,100049.86
2023-04-20T23:46:12.671Z,100038.69
